createdAt,value
2023-05-14T00:01:32.900Z,28.77
2023-05-14T00:06:34.704Z,30.10
2023-05-14T00:11:36.491Z,29.08
2023-05-14T00:16:38.319Z,30.88
2023-05-14T00:21:40.274Z,31.52
2023-05-14T00:26:42.149Z,31.33
2023-05-14T00:31:43.989Z,30.50
2023-05-14T00:36:45.834Z,30.45
2023-05-14T00:41:47.597Z,31.40
2023-05-14T00:46:49.449Z,31.48
2023-05-14T00:51:51.572Z,31.70
2023-05-14T00:56:54.040Z,32.92
2023-05-14T01:01:56.141Z,32.05
2023-05-14T01:07:37.537Z,33.00
2023-05-14T01:13:09.519Z,33.40
2023-05-14T01:18:16.746Z,32.15
2023-05-14T01:23:18.536Z,34.75
2023-05-14T01:28:27.116Z,35.20
2023-05-14T01:33:30.703Z,35.08
2023-05-14T01:38:34.423Z,34.70
2023-05-14T01:43:37.327Z,34.53
2023-05-14T01:48:39.201Z,36.05
2023-05-14T01:53:41.421Z,37.58
2023-05-14T01:58:43.302Z,36.05
2023-05-14T02:03:45.110Z,37.63
2023-05-14T02:08:46.929Z,36.55
2023-05-14T02:13:48.709Z,38.72
2023-05-14T02:18:50.712Z,37.03
2023-05-14T02:23:52.645Z,39.65
2023-05-14T02:28:54.470Z,37.30
2023-05-14T02:33:56.332Z,39.40
2023-05-14T02:38:59.403Z,42.08
2023-05-14T02:44:01.428Z,40.35
2023-05-14T02:49:03.256Z,38.95
2023-05-14T02:54:05.416Z,40.75
2023-05-14T02:59:07.177Z,40.22
2023-05-14T03:04:09.594Z,40.80
2023-05-14T03:09:11.389Z,40.65
2023-05-14T03:14:13.161Z,37.95
2023-05-14T03:19:15.117Z,39.25
2023-05-14T03:24:17.047Z,41.08
2023-05-14T03:29:18.832Z,38.50
2023-05-14T03:34:20.742Z,38.85
2023-05-14T03:39:22.530Z,39.45
2023-05-14T03:44:24.756Z,39.58
2023-05-14T03:49:26.530Z,38.97
2023-05-14T03:54:28.334Z,38.65
2023-05-14T03:59:30.146Z,38.33
2023-05-14T04:04:32.012Z,37.53
2023-05-14T04:09:33.830Z,37.90
2023-05-14T04:14:35.615Z,39.03
2023-05-14T04:19:37.485Z,38.47
2023-05-14T04:24:39.286Z,38.08
2023-05-14T04:29:41.049Z,39.50
2023-05-14T04:34:42.890Z,37.53
2023-05-14T04:39:44.709Z,38.03
2023-05-14T04:44:46.504Z,38.10
2023-05-14T04:49:48.457Z,37.72
2023-05-14T04:54:50.505Z,36.20
2023-05-14T04:59:52.321Z,35.28
2023-05-14T05:04:54.092Z,34.85
2023-05-14T05:09:55.880Z,36.13
2023-05-14T05:14:58.087Z,35.72
2023-05-14T05:19:59.906Z,35.60
2023-05-14T05:25:01.738Z,35.88
2023-05-14T05:30:04.185Z,35.35
2023-05-14T05:35:06.567Z,33.60
2023-05-14T05:40:10.220Z,34.95
2023-05-14T05:45:12.054Z,34.63
2023-05-14T05:55:16.975Z,33.40
2023-05-14T06:00:19.218Z,33.42
2023-05-14T06:05:21.068Z,31.73
2023-05-14T06:10:23.052Z,33.55
2023-05-14T06:15:24.973Z,32.60
2023-05-14T06:20:26.823Z,32.78
2023-05-14T06:25:28.775Z,29.83
2023-05-14T06:30:30.674Z,32.03
2023-05-14T06:35:35.049Z,29.02
2023-05-14T06:40:37.031Z,31.65
2023-05-14T06:45:38.811Z,29.52
2023-05-14T06:50:40.699Z,28.30
2023-05-14T06:55:42.591Z,27.70
2023-05-14T07:00:44.485Z,27.95
2023-05-14T07:05:46.774Z,28.92
2023-05-14T07:10:48.638Z,28.27
2023-05-14T07:15:51.390Z,28.00
2023-05-14T07:20:53.216Z,28.52
2023-05-14T07:25:55.057Z,29.20
2023-05-14T07:30:56.945Z,29.52
2023-05-14T07:35:58.822Z,29.95
2023-05-14T07:41:00.681Z,30.13
2023-05-14T07:46:02.519Z,28.95
2023-05-14T07:51:04.431Z,28.15
2023-05-14T07:56:06.623Z,31.65
2023-05-14T08:01:09.253Z,29.27
2023-05-14T08:06:11.178Z,29.08
2023-05-14T08:11:13.029Z,28.77
2023-05-14T08:16:14.940Z,28.65
2023-05-14T08:21:16.916Z,28.05
2023-05-14T08:26:18.696Z,29.55
2023-05-14T08:31:20.764Z,28.90
2023-05-14T08:36:22.642Z,30.70
2023-05-14T08:41:25.184Z,30.35
2023-05-14T08:46:30.911Z,30.23
2023-05-14T08:51:33.804Z,29.25
2023-05-14T08:56:36.960Z,29.65
2023-05-14T09:01:42.466Z,30.35
2023-05-14T09:06:45.112Z,30.88
2023-05-14T09:11:47.957Z,29.50
2023-05-14T09:16:51.056Z,28.33
2023-05-14T09:21:56.351Z,26.80
2023-05-14T09:26:58.791Z,28.10
2023-05-14T09:32:05.746Z,28.15
2023-05-14T09:37:09.051Z,28.60
2023-05-14T09:42:10.870Z,28.05
2023-05-14T09:47:14.966Z,27.35
2023-05-14T09:52:19.368Z,28.10
2023-05-14T09:57:21.410Z,28.23
2023-05-14T10:02:31.217Z,27.85
2023-05-14T10:07:41.735Z,27.77
2023-05-14T10:17:52.621Z,26.38
2023-05-14T10:22:54.625Z,27.13
2023-05-14T10:27:56.792Z,26.13
2023-05-14T10:33:09.394Z,25.73
2023-05-14T10:38:14.798Z,26.35
2023-05-14T10:43:17.853Z,27.60
2023-05-14T10:48:20.058Z,27.70
2023-05-14T10:53:32.457Z,25.70
2023-05-14T10:58:38.700Z,27.05
2023-05-14T11:03:45.459Z,25.98
2023-05-14T11:08:47.693Z,25.50
2023-05-14T11:13:50.305Z,23.17
2023-05-14T11:19:03.528Z,23.70
2023-05-14T11:24:07.635Z,22.63
2023-05-14T11:29:10.554Z,24.50
2023-05-14T11:34:12.417Z,23.13
2023-05-14T11:39:20.449Z,25.30
2023-05-14T11:44:22.697Z,23.60
2023-05-14T11:49:25.476Z,23.02
2023-05-14T11:54:28.653Z,21.52
2023-05-14T11:59:32.645Z,22.02
2023-05-14T12:04:34.581Z,22.70
2023-05-14T12:09:43.573Z,23.02
2023-05-14T12:14:47.329Z,23.98
2023-05-14T12:19:51.496Z,23.23
2023-05-14T12:24:58.453Z,23.70
2023-05-14T12:35:10.312Z,21.20
2023-05-14T12:40:12.351Z,20.10
2023-05-14T12:45:14.108Z,22.35
2023-05-14T12:50:16.429Z,19.48
2023-05-14T12:55:18.238Z,18.08
2023-05-14T13:00:20.241Z,17.63
2023-05-14T13:05:22.089Z,20.10
2023-05-14T13:10:24.836Z,17.95
2023-05-14T13:15:27.070Z,16.90
2023-05-14T13:20:30.948Z,17.48
2023-05-14T13:25:33.272Z,15.40
2023-05-14T13:30:35.101Z,16.40
2023-05-14T13:35:37.006Z,16.02
2023-05-14T13:40:38.767Z,17.20
2023-05-14T13:45:40.789Z,14.65
2023-05-14T13:50:42.573Z,15.32
2023-05-14T13:55:46.661Z,14.27
2023-05-14T14:00:51.424Z,15.15
2023-05-14T14:05:53.271Z,15.60
2023-05-14T14:10:55.484Z,14.50
2023-05-14T14:15:57.510Z,13.07
2023-05-14T14:20:59.334Z,15.07
2023-05-14T14:26:01.514Z,13.48
2023-05-14T14:31:03.487Z,12.57
2023-05-14T14:36:05.985Z,12.05
2023-05-14T14:41:08.298Z,12.15
2023-05-14T14:46:10.116Z,10.90
2023-05-14T14:51:12.050Z,11.05
2023-05-14T14:56:13.832Z,10.90
2023-05-14T15:01:15.912Z,10.80
2023-05-14T15:06:17.904Z,10.45
2023-05-14T15:11:19.722Z,10.30
2023-05-14T15:16:21.556Z,9.60
2023-05-14T15:21:23.385Z,9.63
2023-05-14T15:26:26.264Z,9.73
2023-05-14T15:31:28.287Z,9.40
2023-05-14T15:36:30.157Z,8.57
2023-05-14T15:41:32.057Z,8.77
2023-05-14T15:46:34.066Z,8.73
2023-05-14T15:51:35.967Z,9.02
2023-05-14T15:56:37.779Z,9.10
2023-05-14T16:01:39.547Z,8.93
2023-05-14T16:06:42.706Z,9.10
2023-05-14T16:11:44.490Z,9.45
2023-05-14T16:16:46.501Z,7.97
2023-05-14T16:21:48.369Z,8.98
2023-05-14T16:26:50.531Z,8.07
2023-05-14T16:31:52.372Z,6.97
2023-05-14T16:36:54.265Z,8.25
2023-05-14T16:41:56.103Z,8.02
2023-05-14T16:46:57.870Z,7.20
2023-05-14T16:51:59.708Z,6.88
2023-05-14T16:57:01.425Z,7.88
2023-05-14T17:02:03.447Z,7.53
2023-05-14T17:07:06.047Z,6.53
2023-05-14T17:12:08.135Z,7.95
2023-05-14T17:17:09.939Z,7.50
2023-05-14T17:22:12.470Z,7.82
2023-05-14T17:27:16.013Z,7.28
2023-05-14T17:32:19.131Z,7.65
2023-05-14T17:37:21.103Z,6.25
2023-05-14T17:42:22.872Z,7.00
2023-05-14T17:47:24.731Z,6.50
2023-05-14T17:52:26.577Z,6.03
2023-05-14T17:57:28.573Z,6.30
2023-05-14T18:02:30.499Z,5.57
2023-05-14T18:07:32.348Z,5.63
2023-05-14T18:12:34.116Z,5.63
2023-05-14T18:17:36.024Z,6.05
2023-05-14T18:22:38.053Z,6.05
2023-05-14T18:27:44.458Z,5.47
2023-05-14T18:32:46.717Z,6.00
2023-05-14T18:37:48.621Z,6.13
2023-05-14T18:42:51.736Z,6.05
2023-05-14T18:47:53.702Z,5.22
2023-05-14T18:52:55.606Z,5.13
2023-05-14T18:57:58.143Z,5.55
2023-05-14T19:03:00.000Z,5.68
2023-05-14T19:08:02.010Z,5.95
2023-05-14T19:13:03.780Z,6.47
2023-05-14T19:18:05.650Z,6.30
2023-05-14T19:23:07.565Z,6.82
2023-05-14T19:28:12.280Z,6.68
2023-05-14T19:33:14.109Z,8.30
2023-05-14T19:38:15.983Z,7.18
2023-05-14T19:43:17.851Z,7.82
2023-05-14T19:48:19.698Z,8.27
2023-05-14T19:53:21.471Z,8.93
2023-05-14T19:58:23.755Z,9.15
2023-05-14T20:03:28.261Z,9.00
2023-05-14T20:08:30.200Z,9.70
2023-05-14T20:13:32.745Z,10.40
2023-05-14T20:18:34.581Z,11.25
2023-05-14T20:23:37.783Z,11.23
2023-05-14T20:28:39.632Z,10.43
2023-05-14T20:33:41.416Z,9.90
2023-05-14T20:38:43.642Z,10.15
2023-05-14T20:43:45.499Z,10.73
2023-05-14T20:48:48.258Z,11.35
2023-05-14T20:53:50.056Z,11.65
2023-05-14T20:58:51.860Z,10.93
2023-05-14T21:03:54.106Z,11.20
2023-05-14T21:08:55.963Z,11.73
2023-05-14T21:13:57.904Z,12.07
2023-05-14T21:18:59.690Z,12.50
2023-05-14T21:24:01.522Z,12.73
2023-05-14T21:29:03.756Z,12.93
2023-05-14T21:34:05.834Z,13.82
2023-05-14T21:39:07.588Z,13.68
2023-05-14T21:44:09.395Z,12.98
2023-05-14T21:49:11.341Z,14.57
2023-05-14T21:54:14.121Z,14.52
2023-05-14T21:59:16.047Z,14.23
2023-05-14T22:04:17.902Z,14.70
2023-05-14T22:09:19.667Z,15.75
2023-05-14T22:14:21.403Z,15.73
2023-05-14T22:19:23.162Z,15.00
2023-05-14T22:24:24.937Z,16.38
2023-05-14T22:29:26.736Z,16.55
2023-05-14T22:34:28.542Z,17.20
2023-05-14T22:39:30.300Z,16.08
2023-05-14T22:44:32.138Z,17.02
2023-05-14T22:49:36.378Z,18.10
2023-05-14T22:54:38.189Z,18.45
2023-05-14T22:59:39.954Z,19.38
2023-05-14T23:04:41.761Z,17.73
2023-05-14T23:09:43.553Z,17.92
2023-05-14T23:14:45.984Z,18.30
2023-05-14T23:19:47.750Z,18.17
2023-05-14T23:24:49.526Z,18.45
2023-05-14T23:29:51.521Z,19.27
2023-05-14T23:34:53.343Z,17.92
2023-05-14T23:39:55.265Z,18.23
2023-05-14T23:44:57.148Z,17.83
2023-05-14T23:49:58.926Z,16.95
2023-05-14T23:55:01.108Z,17.77
